Time;durP1;ratioP1;P1;durP2;ratioP2;P2;SDS_P1;SDS_P2;PMS_P1;PMS_P2;Temp;Humidity;BMP_temperature;BMP_pressure;BME280_temperature;BME280_humidity;BME280_pressure;Samples;Min_cycle;Max_cycle;Signal;HPM_P1;HPM_P2
2022/01/05 00:01:06;;;;;;;6.57;1.38;;;3.00;99.90;;;;;;5116151;28;20039;-67
2022/01/05 00:03:32;;;;;;;8.68;1.63;;;3.00;99.90;;;;;;5115573;28;20524;-67
2022/01/05 00:05:57;;;;;;;3.30;1.30;;;3.00;99.90;;;;;;5115544;28;20039;-67
2022/01/05 00:08:25;;;;;;;6.32;1.25;;;2.90;99.90;;;;;;5116103;28;20119;-67
2022/01/05 00:10:52;;;;;;;9.88;1.65;;;2.90;99.90;;;;;;5116383;28;20042;-67
2022/01/05 00:13:18;;;;;;;6.57;1.70;;;2.90;99.90;;;;;;5114888;28;20031;-67
2022/01/05 00:15:43;;;;;;;6.40;1.17;;;2.90;99.90;;;;;;5115784;28;20050;-67
2022/01/05 00:18:09;;;;;;;7.22;1.52;;;2.90;99.90;;;;;;5116172;28;20070;-67
2022/01/05 00:20:34;;;;;;;5.07;1.65;;;2.80;99.90;;;;;;5115397;28;20032;-67
2022/01/05 00:23:00;;;;;;;16.25;2.55;;;2.80;99.90;;;;;;5115758;27;20027;-67
2022/01/05 00:25:26;;;;;;;9.15;1.60;;;2.80;99.90;;;;;;5115855;28;20045;-66
2022/01/05 00:27:51;;;;;;;12.30;2.08;;;2.80;99.90;;;;;;5115184;28;20446;-66
2022/01/05 00:30:17;;;;;;;7.20;1.52;;;2.80;99.90;;;;;;5115704;28;20061;-68
2022/01/05 00:32:42;;;;;;;11.30;2.15;;;2.80;99.90;;;;;;5115313;28;20044;-67
2022/01/05 00:35:09;;;;;;;5.95;2.03;;;2.80;99.90;;;;;;5115853;28;20040;-67
2022/01/05 00:37:34;;;;;;;7.60;1.73;;;2.80;99.90;;;;;;5114833;28;20050;-67
2022/01/05 00:40:00;;;;;;;9.27;2.42;;;2.80;99.90;;;;;;5115388;28;20040;-67
2022/01/05 00:42:25;;;;;;;7.95;1.88;;;2.70;99.90;;;;;;5115564;28;20432;-67
2022/01/05 00:44:51;;;;;;;8.18;1.77;;;2.70;99.90;;;;;;5115708;28;20484;-68
2022/01/05 00:47:16;;;;;;;13.70;2.50;;;2.70;99.90;;;;;;5114740;28;20411;-67
2022/01/05 00:49:42;;;;;;;11.85;2.17;;;2.80;99.90;;;;;;5115014;28;20046;-67
2022/01/05 00:52:08;;;;;;;15.88;2.35;;;2.70;99.90;;;;;;5115216;28;20080;-67
2022/01/05 00:54:34;;;;;;;7.90;2.00;;;2.80;99.90;;;;;;5115222;28;20127;-67
2022/01/05 00:57:00;;;;;;;16.83;2.88;;;2.80;99.90;;;;;;5113350;28;20142;-67
2022/01/05 00:59:25;;;;;;;10.75;2.92;;;2.90;99.90;;;;;;5113651;28;20036;-67
2022/01/05 01:01:51;;;;;;;11.48;2.35;;;2.90;99.90;;;;;;5115430;27;20031;-67
2022/01/05 01:04:17;;;;;;;11.70;1.95;;;3.00;99.90;;;;;;5114835;28;20092;-67
2022/01/05 01:06:42;;;;;;;5.78;1.75;;;3.00;99.90;;;;;;5114708;28;20092;-67
2022/01/05 01:09:08;;;;;;;6.20;1.63;;;3.00;99.90;;;;;;5113370;28;20047;-67
2022/01/05 01:11:34;;;;;;;14.07;2.08;;;3.00;99.90;;;;;;5114699;28;20043;-67
2022/01/05 01:14:00;;;;;;;14.65;2.63;;;3.00;99.90;;;;;;5113261;28;20051;-67
2022/01/05 01:16:26;;;;;;;14.90;2.60;;;3.00;99.90;;;;;;5114382;28;20118;-68
2022/01/05 01:18:51;;;;;;;10.55;2.63;;;3.00;99.90;;;;;;5114434;28;20069;-66
2022/01/05 01:21:17;;;;;;;9.50;1.98;;;3.10;99.90;;;;;;5113098;28;20084;-66
2022/01/05 01:23:53;;;;;;;9.38;2.08;;;3.10;99.90;;;;;;5114513;28;20043;-66
2022/01/05 01:26:19;;;;;;;9.30;2.45;;;3.00;99.90;;;;;;5114096;28;20043;-66
2022/01/05 01:28:45;;;;;;;11.98;1.55;;;3.10;99.90;;;;;;5114107;28;20047;-67
2022/01/05 01:31:10;;;;;;;10.80;2.28;;;3.10;99.90;;;;;;5114856;28;20039;-67
2022/01/05 01:33:36;;;;;;;7.15;2.17;;;3.00;99.90;;;;;;5114179;28;20467;-66
2022/01/05 01:36:02;;;;;;;11.32;2.60;;;3.10;99.90;;;;;;5113765;28;20044;-66
2022/01/05 01:38:28;;;;;;;11.63;2.17;;;3.10;99.90;;;;;;5114027;28;20034;-67
2022/01/05 01:40:53;;;;;;;15.15;2.65;;;3.10;99.90;;;;;;5113033;28;20114;-67
2022/01/05 01:43:19;;;;;;;10.38;2.40;;;3.10;99.90;;;;;;5114231;28;20475;-67
2022/01/05 01:45:45;;;;;;;14.70;3.20;;;3.10;99.90;;;;;;5112395;28;20039;-66
2022/01/05 01:48:10;;;;;;;23.35;3.15;;;3.20;99.90;;;;;;5114202;28;20047;-67
2022/01/05 01:50:36;;;;;;;15.55;3.05;;;3.20;99.90;;;;;;5114250;28;20040;-67
2022/01/05 01:53:02;;;;;;;17.15;3.25;;;3.10;99.90;;;;;;5114024;28;20104;-67
2022/01/05 01:55:27;;;;;;;7.40;2.03;;;3.20;99.90;;;;;;5112546;28;20247;-66
2022/01/05 01:57:54;;;;;;;10.98;3.38;;;3.10;99.90;;;;;;5114193;28;20032;-67
2022/01/05 02:00:20;;;;;;;15.95;3.15;;;3.10;99.90;;;;;;5113783;28;20475;-66
2022/01/05 02:02:46;;;;;;;15.23;2.80;;;3.10;99.90;;;;;;5114035;28;20036;-66
2022/01/05 02:05:12;;;;;;;25.13;3.83;;;3.10;99.90;;;;;;5114238;28;20417;-67
2022/01/05 02:07:39;;;;;;;11.30;2.28;;;3.00;99.90;;;;;;5113564;28;20039;-66
2022/01/05 02:10:06;;;;;;;13.27;3.25;;;3.00;99.90;;;;;;5114002;28;20043;-66
2022/01/05 02:12:32;;;;;;;9.35;3.25;;;3.00;99.90;;;;;;5113958;28;20055;-66
2022/01/05 02:14:58;;;;;;;7.07;1.90;;;3.00;99.90;;;;;;5114236;28;20035;-66
2022/01/05 02:17:31;;;;;;;9.23;2.05;;;3.00;99.90;;;;;;5112443;28;20035;-67
2022/01/05 02:19:57;;;;;;;11.15;2.25;;;3.00;99.90;;;;;;5117388;28;20071;-67
2022/01/05 02:22:22;;;;;;;11.20;2.25;;;3.00;99.90;;;;;;5118428;28;20067;-67
2022/01/05 02:24:48;;;;;;;16.83;4.45;;;3.00;99.90;;;;;;5116651;28;20434;-67
2022/01/05 02:27:17;;;;;;;13.73;2.78;;;2.90;99.90;;;;;;5117424;28;20035;-67
2022/01/05 02:29:44;;;;;;;15.25;3.30;;;2.90;99.90;;;;;;5117932;28;20119;-67
2022/01/05 02:32:10;;;;;;;11.98;3.10;;;2.90;99.90;;;;;;5117701;28;20115;-67
2022/01/05 02:34:35;;;;;;;13.13;3.30;;;2.90;99.90;;;;;;5117745;28;20158;-67
2022/01/05 02:37:01;;;;;;;11.82;2.53;;;2.90;99.90;;;;;;5117321;28;20044;-67
2022/01/05 02:39:26;;;;;;;11.43;2.97;;;2.90;99.90;;;;;;5117912;28;20035;-67
2022/01/05 02:41:52;;;;;;;13.23;2.28;;;3.00;99.90;;;;;;5118232;27;20039;-67
2022/01/05 02:44:18;;;;;;;11.73;2.28;;;2.90;99.90;;;;;;5117396;28;20039;-67
2022/01/05 02:46:44;;;;;;;8.80;2.42;;;2.90;99.90;;;;;;5116276;28;20050;-67
2022/01/05 02:49:10;;;;;;;12.00;2.80;;;2.90;99.90;;;;;;5117940;28;20039;-67
2022/01/05 02:51:35;;;;;;;17.50;4.95;;;3.00;99.90;;;;;;5117856;28;20069;-67
2022/01/05 02:54:02;;;;;;;16.73;3.33;;;3.10;99.90;;;;;;5117665;28;20470;-66
2022/01/05 02:56:27;;;;;;;12.60;2.10;;;3.00;99.90;;;;;;5117285;28;20487;-66
2022/01/05 02:58:53;;;;;;;11.88;2.60;;;3.00;99.90;;;;;;5117042;28;20043;-67
2022/01/05 03:01:18;;;;;;;13.57;3.15;;;3.00;99.90;;;;;;5117507;28;20058;-67
2022/01/05 03:03:44;;;;;;;13.00;2.63;;;3.00;99.90;;;;;;5116239;28;20050;-67
2022/01/05 03:06:10;;;;;;;12.60;2.63;;;3.00;99.90;;;;;;5115709;28;20040;-67
2022/01/05 03:08:35;;;;;;;13.25;2.58;;;3.00;99.90;;;;;;5115834;28;20430;-67
2022/01/05 03:11:01;;;;;;;11.95;2.15;;;3.10;99.90;;;;;;5116727;28;20123;-67
2022/01/05 03:13:27;;;;;;;9.57;2.42;;;3.10;99.90;;;;;;5117102;27;20047;-67
2022/01/05 03:15:54;;;;;;;9.07;2.45;;;3.10;99.90;;;;;;5116725;28;20032;-67
2022/01/05 03:18:19;;;;;;;11.05;3.83;;;3.10;99.90;;;;;;5117392;28;20067;-67
2022/01/05 03:20:47;;;;;;;15.75;2.60;;;3.10;99.90;;;;;;5116964;28;20156;-67
2022/01/05 03:23:13;;;;;;;11.73;2.55;;;3.30;99.90;;;;;;5116864;28;20050;-68
2022/01/05 03:25:40;;;;;;;10.65;3.13;;;3.30;99.90;;;;;;5116621;28;20403;-68
2022/01/05 03:28:06;;;;;;;11.77;3.38;;;3.30;99.90;;;;;;5116728;28;20043;-66
2022/01/05 03:30:33;;;;;;;12.05;3.08;;;3.30;99.90;;;;;;5115642;28;20037;-66
2022/01/05 03:35:29;;;;;;;15.48;3.67;;;3.40;99.90;;;;;;5116536;28;20116;-65
2022/01/05 03:37:55;;;;;;;14.63;3.17;;;3.50;99.90;;;;;;5116188;28;20050;-66
2022/01/05 03:40:21;;;;;;;11.90;3.10;;;3.60;99.90;;;;;;5115576;28;20051;-67
2022/01/05 03:42:47;;;;;;;13.63;3.38;;;3.60;99.90;;;;;;5116599;28;20031;-67
2022/01/05 03:45:13;;;;;;;14.73;2.90;;;3.70;99.90;;;;;;5116484;28;20040;-67
2022/01/05 03:47:39;;;;;;;11.50;2.50;;;3.70;99.90;;;;;;5116394;28;20189;-67
2022/01/05 03:50:05;;;;;;;11.75;2.78;;;3.70;99.90;;;;;;5114979;28;20075;-67
2022/01/05 03:52:31;;;;;;;16.40;2.75;;;3.80;99.90;;;;;;5115494;28;20064;-67
2022/01/05 03:54:56;;;;;;;17.95;3.53;;;3.80;99.90;;;;;;5115955;28;20119;-67
2022/01/05 03:57:23;;;;;;;16.42;3.33;;;3.70;99.90;;;;;;5115871;28;20471;-67
2022/01/05 03:59:48;;;;;;;17.58;3.15;;;3.80;99.90;;;;;;5116328;28;20050;-67
2022/01/05 04:02:14;;;;;;;9.52;2.92;;;3.70;99.90;;;;;;5115927;28;20040;-67
2022/01/05 04:04:39;;;;;;;15.30;2.88;;;3.70;99.90;;;;;;5116163;28;20119;-67
2022/01/05 04:07:05;;;;;;;12.32;3.25;;;3.70;99.90;;;;;;5114326;28;20403;-67
2022/01/05 04:09:30;;;;;;;18.73;3.70;;;3.70;99.90;;;;;;5116733;28;20379;-67
2022/01/05 04:11:56;;;;;;;11.45;2.22;;;3.80;99.90;;;;;;5116090;28;20070;-67
2022/01/05 04:14:22;;;;;;;14.07;4.93;;;3.80;99.90;;;;;;5115683;28;20042;-67
2022/01/05 04:16:47;;;;;;;11.40;2.63;;;3.90;99.90;;;;;;5115803;28;20048;-68
2022/01/05 04:19:13;;;;;;;8.82;2.30;;;4.00;99.90;;;;;;5115523;28;20027;-67
2022/01/05 04:21:39;;;;;;;12.35;3.00;;;4.00;99.90;;;;;;5116212;28;20039;-67
2022/01/05 04:24:05;;;;;;;14.68;3.25;;;4.10;99.90;;;;;;5115454;28;20036;-67
2022/01/05 04:26:30;;;;;;;12.73;2.08;;;4.20;99.90;;;;;;5115416;28;20566;-67
2022/01/05 04:28:56;;;;;;;8.68;2.30;;;4.30;99.90;;;;;;5115857;28;20039;-67
2022/01/05 04:31:21;;;;;;;10.73;2.45;;;4.30;99.90;;;;;;5097459;28;20093;-67
2022/01/05 04:33:47;;;;;;;6.30;2.03;;;4.30;99.90;;;;;;5115817;28;20047;-67
2022/01/05 04:36:12;;;;;;;8.52;2.60;;;4.40;99.90;;;;;;5115263;28;20479;-67
2022/01/05 04:38:38;;;;;;;7.95;2.08;;;4.30;99.90;;;;;;5115824;28;20417;-67
2022/01/05 04:41:04;;;;;;;9.80;1.80;;;4.30;99.90;;;;;;5115026;27;20063;-67
2022/01/05 04:43:30;;;;;;;12.45;3.08;;;4.30;99.90;;;;;;5115129;28;20035;-67
2022/01/05 04:45:56;;;;;;;10.18;2.10;;;4.40;99.90;;;;;;5115034;28;20060;-67
2022/01/05 04:48:21;;;;;;;8.32;2.05;;;4.30;99.90;;;;;;5115528;27;20043;-67
2022/01/05 04:50:47;;;;;;;13.32;2.35;;;4.30;99.90;;;;;;5115440;28;20049;-67
2022/01/05 04:53:13;;;;;;;12.15;1.85;;;4.20;99.90;;;;;;5114848;28;20036;-67
2022/01/05 04:55:39;;;;;;;10.95;2.25;;;4.10;99.90;;;;;;5114833;28;20052;-67
2022/01/05 04:58:05;;;;;;;10.73;1.92;;;4.20;99.90;;;;;;5115056;28;20038;-67
2022/01/05 05:00:31;;;;;;;9.82;2.40;;;4.20;99.90;;;;;;5115200;28;20040;-67
2022/01/05 05:02:57;;;;;;;11.70;1.90;;;4.20;99.90;;;;;;5114006;28;20123;-67
2022/01/05 05:05:22;;;;;;;11.45;3.00;;;4.20;99.90;;;;;;5114939;28;20122;-67
2022/01/05 05:07:48;;;;;;;13.13;2.83;;;4.20;99.90;;;;;;5114800;28;20114;-67
2022/01/05 05:10:14;;;;;;;10.68;1.80;;;4.20;99.90;;;;;;5114797;28;20031;-67
2022/01/05 05:12:39;;;;;;;11.80;2.50;;;4.20;99.90;;;;;;5115035;28;20035;-67
2022/01/05 05:15:05;;;;;;;14.70;3.15;;;4.20;99.90;;;;;;5114588;28;20123;-67
2022/01/05 05:17:31;;;;;;;14.73;2.28;;;4.20;99.90;;;;;;5114322;28;20035;-67
2022/01/05 05:19:56;;;;;;;14.75;3.00;;;4.20;99.90;;;;;;5114926;28;20047;-67
2022/01/05 05:22:22;;;;;;;13.07;2.72;;;4.20;99.90;;;;;;5115035;28;20053;-67
2022/01/05 05:24:47;;;;;;;11.38;3.05;;;4.20;99.90;;;;;;5115374;28;20063;-67
2022/01/05 05:27:13;;;;;;;12.57;2.50;;;4.30;99.90;;;;;;5114179;28;20491;-67
2022/01/05 05:29:39;;;;;;;13.27;3.20;;;4.30;99.90;;;;;;5114604;28;20058;-67
2022/01/05 05:32:05;;;;;;;16.13;3.22;;;4.20;99.90;;;;;;5114761;28;20082;-67
2022/01/05 05:34:31;;;;;;;14.15;3.25;;;4.30;99.90;;;;;;5114813;28;20115;-67
2022/01/05 05:36:57;;;;;;;9.40;2.53;;;4.30;99.90;;;;;;5113520;28;20127;-67
2022/01/05 05:39:23;;;;;;;12.70;2.88;;;4.40;99.90;;;;;;5114366;28;20336;-67
2022/01/05 05:41:48;;;;;;;12.70;2.50;;;4.30;99.90;;;;;;5114292;28;20043;-67
2022/01/05 05:44:14;;;;;;;12.20;3.15;;;4.40;99.90;;;;;;5114173;28;20028;-67
2022/01/05 05:46:39;;;;;;;17.95;3.08;;;4.40;99.90;;;;;;5114341;28;20380;-67
2022/01/05 05:49:05;;;;;;;13.30;2.80;;;4.50;99.90;;;;;;5114578;28;20044;-67
2022/01/05 05:51:30;;;;;;;9.75;2.90;;;4.50;99.90;;;;;;5114491;27;20429;-67
2022/01/05 05:53:56;;;;;;;15.68;2.75;;;4.50;99.90;;;;;;5113318;28;20059;-67
2022/01/05 05:56:22;;;;;;;24.23;3.88;;;4.50;99.90;;;;;;5112417;28;20084;-67
2022/01/05 05:58:47;;;;;;;14.52;3.03;;;4.50;99.90;;;;;;5113828;28;20118;-67
2022/01/05 06:01:13;;;;;;;17.58;3.25;;;4.40;99.90;;;;;;5113988;28;20115;-67
2022/01/05 06:03:38;;;;;;;14.52;3.47;;;4.40;99.90;;;;;;5113911;28;20104;-67
2022/01/05 06:06:04;;;;;;;16.30;3.00;;;4.30;99.90;;;;;;5113939;28;20403;-67
2022/01/05 06:08:29;;;;;;;18.02;3.10;;;4.40;99.90;;;;;;5114298;28;20088;-67
2022/01/05 06:10:55;;;;;;;16.10;3.53;;;4.30;99.90;;;;;;5113909;28;20039;-67
2022/01/05 06:13:21;;;;;;;21.88;4.25;;;4.40;99.90;;;;;;5114001;28;20031;-67
2022/01/05 06:15:46;;;;;;;18.85;4.05;;;4.50;99.90;;;;;;5113722;28;20100;-67
2022/01/05 06:18:12;;;;;;;14.98;3.40;;;4.40;99.90;;;;;;5113862;28;20035;-67
2022/01/05 06:20:37;;;;;;;21.20;4.18;;;4.40;99.90;;;;;;5113507;28;20081;-67
2022/01/05 06:23:03;;;;;;;17.77;3.30;;;4.40;99.90;;;;;;5113952;28;20054;-67
2022/01/05 06:25:29;;;;;;;10.07;2.72;;;4.40;99.90;;;;;;5113766;28;20061;-66
2022/01/05 06:27:54;;;;;;;11.27;2.20;;;4.50;99.90;;;;;;5112380;28;20127;-67
2022/01/05 06:30:20;;;;;;;14.38;2.78;;;4.40;99.90;;;;;;5113816;28;20043;-67
2022/01/05 06:32:46;;;;;;;9.13;2.15;;;4.40;99.90;;;;;;5114158;28;20114;-67
2022/01/05 06:35:13;;;;;;;13.13;2.72;;;4.40;99.90;;;;;;5113593;28;20080;-67
2022/01/05 06:37:39;;;;;;;15.13;2.72;;;4.50;99.90;;;;;;5113219;28;20043;-67
2022/01/05 06:40:06;;;;;;;13.70;3.53;;;4.50;99.90;;;;;;5113809;28;20044;-67
2022/01/05 06:42:32;;;;;;;20.00;3.35;;;4.50;99.90;;;;;;5113574;28;20047;-67
2022/01/05 06:44:57;;;;;;;17.27;3.05;;;4.60;99.90;;;;;;5112160;28;20040;-67
2022/01/05 06:47:23;;;;;;;15.13;2.90;;;4.50;99.90;;;;;;5113248;28;20063;-67
2022/01/05 06:49:50;;;;;;;19.80;3.58;;;4.50;99.90;;;;;;5114068;28;20043;-67
2022/01/05 06:52:15;;;;;;;20.45;3.47;;;4.60;99.90;;;;;;5113389;28;20119;-67
2022/01/05 06:54:41;;;;;;;18.77;2.95;;;4.60;99.90;;;;;;5112054;28;20069;-67
2022/01/05 06:57:08;;;;;;;13.38;2.80;;;4.60;99.90;;;;;;5113068;28;20032;-67
2022/01/05 06:59:35;;;;;;;16.95;3.03;;;4.60;99.90;;;;;;5114114;28;20036;-67
2022/01/05 07:02:01;;;;;;;13.40;3.47;;;4.60;99.90;;;;;;5112038;28;20055;-67
2022/01/05 07:04:27;;;;;;;16.60;2.03;;;4.70;99.90;;;;;;5115368;28;20060;-67
2022/01/05 07:06:52;;;;;;;11.43;2.75;;;4.70;99.90;;;;;;5116932;28;20047;-67
2022/01/05 07:09:18;;;;;;;15.93;2.50;;;4.80;99.90;;;;;;5117076;28;20376;-67
2022/01/05 07:11:43;;;;;;;11.63;2.25;;;4.70;99.90;;;;;;5117428;28;20035;-67
2022/01/05 07:14:09;;;;;;;11.93;3.25;;;4.80;99.90;;;;;;5117079;28;20498;-67
2022/01/05 07:16:35;;;;;;;20.48;2.95;;;4.70;99.90;;;;;;5116596;28;20088;-67
2022/01/05 07:19:01;;;;;;;8.38;1.90;;;4.70;99.90;;;;;;5117356;28;20066;-67
2022/01/05 07:21:26;;;;;;;12.02;2.08;;;4.80;99.90;;;;;;5115584;28;20047;-67
2022/01/05 07:23:52;;;;;;;9.38;1.58;;;4.90;99.90;;;;;;5115550;28;20044;-67
2022/01/05 07:26:17;;;;;;;10.68;2.38;;;4.80;99.90;;;;;;5116558;28;20040;-66
2022/01/05 07:28:44;;;;;;;11.45;2.03;;;4.80;99.90;;;;;;5116817;28;20042;-66
2022/01/05 07:31:10;;;;;;;10.75;1.63;;;4.80;99.90;;;;;;5115359;28;20043;-66
2022/01/05 07:33:36;;;;;;;17.35;2.25;;;4.80;99.90;;;;;;5116777;28;20035;-66
2022/01/05 07:36:02;;;;;;;11.77;3.15;;;4.80;99.90;;;;;;5116005;28;20044;-67
2022/01/05 07:38:29;;;;;;;6.68;1.70;;;4.70;99.90;;;;;;5116517;28;20036;-66
2022/01/05 07:40:54;;;;;;;9.27;1.85;;;4.80;99.90;;;;;;5116462;28;20039;-67
2022/01/05 07:43:22;;;;;;;10.77;1.90;;;4.80;99.90;;;;;;5116977;27;20039;-66
2022/01/05 07:45:48;;;;;;;10.52;2.00;;;4.80;99.90;;;;;;5116545;27;20075;-66
2022/01/05 07:48:14;;;;;;;10.13;1.90;;;4.80;99.90;;;;;;5116494;28;20043;-66
2022/01/05 07:50:39;;;;;;;9.68;2.22;;;4.80;99.90;;;;;;5098002;28;20035;-66
2022/01/05 07:53:05;;;;;;;11.60;2.08;;;4.80;99.90;;;;;;5115094;28;20043;-67
2022/01/05 07:55:32;;;;;;;11.00;2.25;;;4.80;99.90;;;;;;5115684;28;20113;-66
2022/01/05 07:57:59;;;;;;;13.10;3.08;;;4.80;99.90;;;;;;5116107;28;20040;-66
2022/01/05 08:00:25;;;;;;;14.50;2.30;;;4.80;99.90;;;;;;5116998;28;20073;-66
2022/01/05 08:02:50;;;;;;;8.63;1.73;;;4.80;99.90;;;;;;5116219;28;20036;-66
2022/01/05 08:05:16;;;;;;;12.13;2.65;;;4.70;99.90;;;;;;5116020;28;20548;-66
2022/01/05 08:07:41;;;;;;;11.98;2.30;;;4.60;99.90;;;;;;5115659;28;20031;-66
2022/01/05 08:10:07;;;;;;;9.98;3.30;;;4.70;99.90;;;;;;5116010;27;20483;-66
2022/01/05 08:12:33;;;;;;;13.95;2.28;;;4.80;99.90;;;;;;5114996;28;20462;-67
2022/01/05 08:14:58;;;;;;;17.90;2.80;;;4.80;99.90;;;;;;5115318;28;20032;-66
2022/01/05 08:17:24;;;;;;;16.42;3.53;;;4.90;99.90;;;;;;5113877;28;20089;-66
2022/01/05 08:19:50;;;;;;;11.52;1.92;;;5.00;99.90;;;;;;5114724;28;20031;-66
2022/01/05 08:22:15;;;;;;;8.80;1.90;;;5.10;99.90;;;;;;5109517;28;20036;-67
2022/01/05 08:24:41;;;;;;;12.02;2.70;;;5.10;99.90;;;;;;5096514;28;20040;-66
2022/01/05 08:27:07;;;;;;;13.45;3.08;;;4.90;99.90;;;;;;5094863;28;20127;-67
2022/01/05 08:29:32;;;;;;;12.98;2.70;;;4.90;99.90;;;;;;5095557;28;20119;-67
2022/01/05 08:32:02;;;;;;;22.40;2.60;;;5.00;99.90;;;;;;5097905;28;20089;-67
2022/01/05 08:34:29;;;;;;;12.90;2.22;;;4.90;99.90;;;;;;5105078;28;20083;-67
2022/01/05 08:36:55;;;;;;;9.45;2.25;;;5.00;99.90;;;;;;5104981;28;20040;-67
2022/01/05 08:39:22;;;;;;;16.60;3.60;;;5.00;99.90;;;;;;5105939;28;20111;-66
2022/01/05 08:41:48;;;;;;;13.40;1.92;;;5.10;99.90;;;;;;5103785;28;20050;-67
2022/01/05 08:44:13;;;;;;;11.75;2.10;;;5.00;99.90;;;;;;5113323;28;20036;-67
2022/01/05 08:46:39;;;;;;;13.13;2.20;;;5.20;99.90;;;;;;5114928;28;20388;-69
2022/01/05 08:49:05;;;;;;;11.35;2.03;;;5.10;99.90;;;;;;5113320;28;20047;-69
2022/01/05 08:51:30;;;;;;;17.08;2.20;;;5.30;99.90;;;;;;5113922;28;20051;-69
2022/01/05 08:53:56;;;;;;;21.05;3.15;;;5.30;99.90;;;;;;5113766;28;20473;-69
2022/01/05 08:56:23;;;;;;;12.93;3.00;;;5.40;99.90;;;;;;5113355;28;20043;-69
2022/01/05 08:58:50;;;;;;;17.17;3.03;;;5.40;99.90;;;;;;5114854;28;20038;-69
2022/01/05 09:01:16;;;;;;;18.23;3.05;;;5.50;99.90;;;;;;5114843;28;20031;-69
2022/01/05 09:03:41;;;;;;;20.25;3.70;;;5.50;99.90;;;;;;5114954;28;20058;-69
2022/01/05 09:06:07;;;;;;;14.18;3.47;;;5.60;99.90;;;;;;5113122;28;20487;-69
2022/01/05 09:08:34;;;;;;;20.40;4.13;;;5.50;99.90;;;;;;5113339;28;20046;-69
2022/01/05 09:11:00;;;;;;;15.63;3.38;;;5.70;99.90;;;;;;5115220;28;20036;-69
2022/01/05 09:13:25;;;;;;;17.75;3.83;;;5.70;99.90;;;;;;5096381;28;20526;-69
2022/01/05 09:15:52;;;;;;;19.88;4.55;;;5.70;99.90;;;;;;5114754;28;20047;-69
2022/01/05 09:18:18;;;;;;;23.27;3.22;;;5.70;99.90;;;;;;5114458;28;20050;-69
2022/01/05 09:20:44;;;;;;;21.58;3.08;;;5.60;99.90;;;;;;5114552;28;20048;-69
2022/01/05 09:23:09;;;;;;;21.17;3.13;;;5.60;99.90;;;;;;5114807;28;20031;-69
2022/01/05 09:25:35;;;;;;;14.95;3.03;;;5.60;99.90;;;;;;5112919;28;20055;-69
2022/01/05 09:28:01;;;;;;;23.10;3.22;;;5.70;99.90;;;;;;5114421;28;20084;-69
2022/01/05 09:30:28;;;;;;;11.40;2.30;;;5.70;99.90;;;;;;5114824;28;20118;-69
2022/01/05 09:32:54;;;;;;;15.27;2.40;;;5.70;99.90;;;;;;5114450;28;20036;-69
2022/01/05 09:35:22;;;;;;;16.33;2.90;;;5.70;99.90;;;;;;5112830;28;20036;-69
2022/01/05 09:37:53;;;;;;;16.85;2.83;;;5.70;99.90;;;;;;5112562;28;20039;-69
2022/01/05 09:43:06;;;;;;;18.05;2.95;;;5.90;99.90;;;;;;5114409;28;20421;-69
2022/01/05 09:45:34;;;;;;;14.15;2.67;;;5.90;99.90;;;;;;5114070;28;20396;-69
2022/01/05 09:48:21;;;;;;;15.75;2.42;;;6.00;99.90;;;;;;5112856;28;20043;-69
2022/01/05 09:50:54;;;;;;;14.82;2.47;;;6.00;99.90;;;;;;5113288;28;20087;-69
2022/01/05 09:53:22;;;;;;;14.50;2.20;;;6.00;99.90;;;;;;5113620;28;20496;-69
2022/01/05 09:55:51;;;;;;;14.25;3.03;;;6.00;99.90;;;;;;5113814;28;20040;-69
2022/01/05 09:58:19;;;;;;;19.40;2.45;;;6.00;99.90;;;;;;5113193;28;20357;-69
2022/01/05 10:00:45;;;;;;;12.45;2.42;;;6.00;99.90;;;;;;5113958;28;20039;-69
2022/01/05 10:03:14;;;;;;;14.18;2.88;;;6.10;99.90;;;;;;5113353;28;20039;-69
2022/01/05 10:05:40;;;;;;;12.00;2.33;;;6.20;99.90;;;;;;5113502;28;20059;-69
2022/01/05 10:08:06;;;;;;;13.85;2.55;;;6.30;99.90;;;;;;5113768;28;20044;-69
2022/01/05 10:10:31;;;;;;;15.25;2.67;;;6.30;99.90;;;;;;5114086;28;20392;-69
2022/01/05 10:12:57;;;;;;;13.07;3.20;;;6.40;99.90;;;;;;5114077;28;20050;-69
2022/01/05 10:15:25;;;;;;;17.33;2.92;;;6.50;99.90;;;;;;5113794;28;20050;-69
2022/01/05 10:18:12;;;;;;;14.95;3.45;;;6.50;99.90;;;;;;5113846;28;20036;-69
2022/01/05 10:20:54;;;;;;;11.77;2.80;;;6.50;99.90;;;;;;5113895;28;20116;-69
2022/01/05 10:23:36;;;;;;;11.85;2.95;;;6.60;99.90;;;;;;5112518;28;20111;-69
2022/01/05 10:26:39;;;;;;;15.00;2.20;;;6.60;99.90;;;;;;5111961;28;20079;-69
2022/01/05 10:29:15;;;;;;;11.75;2.70;;;6.60;99.90;;;;;;5113500;28;20397;-69
2022/01/05 10:31:42;;;;;;;20.58;2.88;;;6.70;99.90;;;;;;5113401;28;20479;-69
2022/01/05 10:34:20;;;;;;;13.32;3.03;;;6.70;99.90;;;;;;5112286;28;20561;-68
2022/01/05 10:36:54;;;;;;;19.15;3.85;;;6.70;99.90;;;;;;5113014;28;20040;-68
2022/01/05 10:39:31;;;;;;;16.05;2.50;;;6.70;99.90;;;;;;5114570;28;20036;-69
2022/01/05 10:42:03;;;;;;;17.58;2.80;;;6.80;99.90;;;;;;5116254;28;20036;-69
2022/01/05 10:44:29;;;;;;;14.63;3.38;;;6.80;99.90;;;;;;5116123;28;20038;-68
2022/01/05 10:46:57;;;;;;;13.10;2.92;;;6.80;99.90;;;;;;5117122;28;20495;-70
2022/01/05 10:49:49;;;;;;;18.33;3.47;;;6.80;99.90;;;;;;5117967;28;20043;-70
2022/01/05 10:52:30;;;;;;;14.15;3.63;;;6.90;99.90;;;;;;5115931;28;20063;-69
2022/01/05 10:55:11;;;;;;;17.65;3.20;;;6.80;99.90;;;;;;5115890;28;20055;-69
2022/01/05 10:57:37;;;;;;;14.52;4.28;;;6.90;99.90;;;;;;5116894;28;20122;-69
2022/01/05 11:00:06;;;;;;;19.90;3.60;;;7.00;99.90;;;;;;5117115;28;20081;-69
2022/01/05 11:02:34;;;;;;;22.23;3.78;;;7.00;99.90;;;;;;5117434;28;20071;-68
2022/01/05 11:05:09;;;;;;;19.92;3.63;;;7.10;99.90;;;;;;5116079;28;20127;-69
2022/01/05 11:07:39;;;;;;;23.50;5.07;;;7.20;99.90;;;;;;5116869;28;20245;-68
2022/01/05 11:10:09;;;;;;;13.82;5.07;;;7.20;99.90;;;;;;5118199;28;20114;-69
2022/01/05 11:12:49;;;;;;;19.63;4.10;;;7.20;99.90;;;;;;5117414;28;20074;-68
2022/01/05 11:15:30;;;;;;;15.43;3.90;;;7.30;99.90;;;;;;5117017;28;20092;-68
2022/01/05 11:18:18;;;;;;;19.98;3.92;;;7.40;99.90;;;;;;5115921;28;20043;-68
2022/01/05 11:20:58;;;;;;;23.10;3.78;;;7.50;99.90;;;;;;5117320;28;20032;-69
2022/01/05 11:23:26;;;;;;;17.52;4.57;;;7.40;99.90;;;;;;5116839;28;20036;-68
2022/01/05 11:25:53;;;;;;;19.35;3.90;;;7.40;99.90;;;;;;5116519;28;20075;-68
2022/01/05 11:28:21;;;;;;;25.23;4.78;;;7.40;99.90;;;;;;5116575;28;20048;-68
2022/01/05 11:30:48;;;;;;;22.70;4.95;;;7.50;99.90;;;;;;5116767;28;20047;-68
2022/01/05 11:33:14;;;;;;;14.98;3.60;;;7.50;99.90;;;;;;5116794;28;20036;-68
2022/01/05 11:35:41;;;;;;;30.55;4.45;;;7.50;99.90;;;;;;5116611;28;20108;-68
2022/01/05 11:38:08;;;;;;;21.75;5.10;;;7.50;99.90;;;;;;5115339;28;20039;-69
2022/01/05 11:40:37;;;;;;;17.98;4.95;;;7.60;99.90;;;;;;5115569;28;20071;-69
2022/01/05 11:43:08;;;;;;;17.65;4.15;;;7.70;99.90;;;;;;5115640;28;20103;-69
2022/01/05 11:45:45;;;;;;;20.23;3.78;;;7.80;99.90;;;;;;5114023;28;20470;-70
2022/01/05 11:48:28;;;;;;;16.83;5.15;;;7.80;99.90;;;;;;5110831;27;20036;-71
2022/01/05 11:51:01;;;;;;;;;;;7.80;99.90;;;;;;5094648;28;20051;-70
2022/01/05 11:53:40;;;;;;;18.50;5.50;;;7.90;99.90;;;;;;5092808;28;19959;-70
2022/01/05 11:56:15;;;;;;;19.02;3.60;;;8.00;99.90;;;;;;5095708;28;20083;-69
2022/01/05 11:58:53;;;;;;;25.83;5.00;;;8.00;99.90;;;;;;5095943;28;20072;-69
2022/01/05 12:01:21;;;;;;;20.45;3.28;;;8.00;99.90;;;;;;5095726;28;20042;-69
2022/01/05 12:03:50;;;;;;;18.40;3.45;;;8.00;99.90;;;;;;5095706;28;20040;-70
2022/01/05 12:06:17;;;;;;;15.02;3.30;;;7.90;99.90;;;;;;5096773;28;20047;-70
2022/01/05 12:08:48;;;;;;;24.00;4.97;;;8.00;99.90;;;;;;5106508;28;20038;-69
2022/01/05 12:11:43;;;;;;;18.27;3.63;;;8.00;99.90;;;;;;5104873;28;20047;-70
2022/01/05 12:14:21;;;;;;;22.15;4.55;;;8.10;99.90;;;;;;5094122;28;20082;-70
2022/01/05 12:17:02;;;;;;;19.92;4.70;;;8.20;99.90;;;;;;5107310;28;20556;-70
2022/01/05 12:19:48;;;;;;;18.75;3.22;;;8.20;99.90;;;;;;5116077;28;20047;-70
2022/01/05 12:22:24;;;;;;;21.38;4.00;;;8.10;99.90;;;;;;5104010;28;20082;-70
2022/01/05 12:25:09;;;;;;;15.05;4.63;;;8.10;99.90;;;;;;5115096;28;20088;-70
2022/01/05 12:27:37;;;;;;;11.38;2.90;;;8.10;99.90;;;;;;5115298;28;20101;-69
2022/01/05 12:30:23;;;;;;;13.23;2.75;;;8.00;99.90;;;;;;5114245;28;20035;-70
2022/01/05 12:33:13;;;;;;;12.88;2.60;;;8.00;99.90;;;;;;5105388;28;20047;-69
2022/01/05 12:35:46;;;;;;;13.00;2.17;;;7.80;99.90;;;;;;5108768;28;20101;-70
2022/01/05 12:38:48;;;;;;;9.65;2.13;;;7.80;99.90;;;;;;5111965;28;20111;-69
2022/01/05 12:41:37;;;;;;;18.75;3.88;;;7.70;99.90;;;;;;5105602;28;20531;-69
2022/01/05 12:44:11;;;;;;;10.95;2.55;;;7.70;99.90;;;;;;5103616;28;20176;-69
2022/01/05 12:46:46;;;;;;;15.27;3.55;;;7.70;99.90;;;;;;5103078;28;20510;-70
2022/01/05 12:49:16;;;;;;;15.18;2.78;;;7.70;99.90;;;;;;5114379;28;20043;-70
2022/01/05 12:51:48;;;;;;;11.95;2.13;;;7.70;99.90;;;;;;5114034;28;20048;-69
2022/01/05 12:54:20;;;;;;;15.52;3.70;;;7.70;99.90;;;;;;5111853;28;20043;-70
2022/01/05 12:56:59;;;;;;;10.70;2.75;;;7.60;99.90;;;;;;5113459;28;20040;-70